Terminal Aerodrome Forecast
Issued by NWS

Home | Current Version | Previous Version | Text Only | Print | Product List | Glossary On
Versions: 1 2 3 4 5 6 7 8 9 10 11 12 13 14
768
FTUS44 KLZK 111120
TAFBPK
TAF
KBPK 111120Z 1112/1212 03007KT P6SM SCT250
     FM112300 10005KT P6SM BKN250
     FM120300 VRB03KT P6SM SCT250=

USA.gov is the U.S. government's official web portal to all federal, state and local government web resources and services.